createdAt,value
2019-03-18T00:00:31.893Z,5.60
2019-03-18T00:03:01.281Z,5.60
2019-03-18T00:05:30.821Z,5.40
2019-03-18T00:08:00.077Z,5.40
2019-03-18T00:10:29.420Z,5.40
2019-03-18T00:12:58.681Z,5.30
2019-03-18T00:15:28.369Z,5.40
2019-03-18T00:17:57.738Z,5.40
2019-03-18T00:20:26.992Z,5.40
2019-03-18T00:22:56.252Z,5.40
2019-03-18T00:25:25.536Z,5.40
2019-03-18T00:27:54.815Z,5.40
2019-03-18T00:30:24.080Z,5.40
2019-03-18T00:32:53.341Z,5.40
2019-03-18T00:35:22.646Z,5.40
2019-03-18T00:37:51.910Z,5.40
2019-03-18T00:40:21.438Z,5.30
2019-03-18T00:42:50.978Z,5.20
2019-03-18T00:45:20.244Z,5.20
2019-03-18T00:47:49.504Z,5.10
2019-03-18T00:50:18.764Z,5.00
2019-03-18T00:52:48.205Z,5.10
2019-03-18T00:55:17.472Z,5.00
2019-03-18T00:57:46.734Z,4.90
2019-03-18T01:00:17.498Z,4.90
2019-03-18T01:02:49.263Z,5.00
2019-03-18T01:05:17.912Z,5.00
2019-03-18T01:07:47.263Z,4.90
2019-03-18T01:10:17.761Z,4.80
2019-03-18T01:12:47.029Z,4.70
2019-03-18T01:15:27.459Z,4.70
2019-03-18T01:17:47.682Z,4.60
2019-03-18T01:20:17.217Z,4.60
2019-03-18T01:22:46.476Z,4.60
2019-03-18T01:25:16.053Z,4.60
2019-03-18T01:27:45.322Z,4.50
2019-03-18T01:30:15.726Z,4.70
2019-03-18T01:32:44.990Z,4.70
2019-03-18T01:35:14.582Z,4.70
2019-03-18T01:37:44.023Z,4.70
2019-03-18T01:40:16.848Z,4.60
2019-03-18T01:42:46.470Z,4.60
2019-03-18T01:45:16.034Z,4.50
2019-03-18T01:47:45.299Z,4.60
2019-03-18T01:50:17.557Z,4.60
2019-03-18T01:52:46.842Z,4.50
2019-03-18T01:55:16.102Z,4.50
2019-03-18T01:57:45.368Z,4.40
2019-03-18T02:00:15.933Z,4.40
2019-03-18T02:02:45.211Z,4.40
2019-03-18T02:05:14.479Z,4.30
2019-03-18T02:07:43.736Z,4.30
2019-03-18T02:10:16.911Z,4.30
2019-03-18T02:12:46.175Z,4.30
2019-03-18T02:15:15.960Z,4.30
2019-03-18T02:17:45.289Z,4.30
2019-03-18T02:20:19.574Z,4.30
2019-03-18T02:22:48.502Z,4.30
2019-03-18T02:25:17.756Z,4.20
2019-03-18T02:27:47.310Z,4.20
2019-03-18T02:30:19.029Z,4.20
2019-03-18T02:32:48.407Z,4.10
2019-03-18T02:35:17.691Z,4.10
2019-03-18T02:37:46.946Z,4.00
2019-03-18T02:40:16.210Z,4.00
2019-03-18T02:42:45.471Z,4.00
2019-03-18T02:45:14.801Z,4.00
2019-03-18T02:47:44.365Z,4.00
2019-03-18T02:50:13.990Z,4.00
2019-03-18T02:52:43.262Z,4.00
2019-03-18T02:55:12.540Z,4.00
2019-03-18T02:57:41.831Z,4.00
2019-03-18T03:00:15.655Z,4.00
2019-03-18T03:02:45.309Z,3.90
2019-03-18T03:05:15.585Z,3.90
2019-03-18T03:07:44.850Z,4.00
2019-03-18T03:10:14.978Z,4.00
2019-03-18T03:12:44.226Z,4.00
2019-03-18T03:15:14.888Z,3.90
2019-03-18T03:17:44.177Z,3.90
2019-03-18T03:20:13.722Z,3.90
2019-03-18T03:22:43.042Z,4.00
2019-03-18T03:25:12.447Z,4.00
2019-03-18T03:27:41.667Z,4.10
2019-03-18T03:30:15.265Z,4.10
2019-03-18T03:32:44.736Z,4.20
2019-03-18T03:35:14.361Z,4.30
2019-03-18T03:37:43.757Z,4.40
2019-03-18T03:40:13.768Z,4.50
2019-03-18T03:42:43.211Z,4.50
2019-03-18T03:45:14.879Z,4.50
2019-03-18T03:47:44.150Z,4.70
2019-03-18T03:50:17.046Z,4.70
2019-03-18T03:52:46.304Z,4.70
2019-03-18T03:55:15.782Z,4.70
2019-03-18T03:57:45.089Z,4.80
2019-03-18T04:00:15.290Z,4.80
2019-03-18T04:02:44.594Z,4.90
2019-03-18T04:05:13.919Z,4.90
2019-03-18T04:07:43.691Z,4.90
2019-03-18T04:10:14.573Z,4.90
2019-03-18T04:12:43.818Z,5.00
2019-03-18T04:15:14.643Z,5.00
2019-03-18T04:17:44.088Z,5.00
2019-03-18T04:20:17.718Z,4.90
2019-03-18T04:22:46.984Z,4.90
2019-03-18T04:25:16.306Z,5.00
2019-03-18T04:27:45.555Z,5.00
2019-03-18T04:30:18.022Z,5.00
2019-03-18T04:32:47.286Z,5.00
2019-03-18T04:35:16.861Z,4.80
2019-03-18T04:37:46.454Z,4.80
2019-03-18T04:40:15.958Z,4.80
2019-03-18T04:42:45.582Z,4.80
2019-03-18T04:45:14.832Z,4.80
2019-03-18T04:47:44.092Z,4.80
2019-03-18T04:50:14.143Z,4.90
2019-03-18T04:52:43.397Z,5.00
2019-03-18T04:55:13.069Z,5.00
2019-03-18T04:57:42.324Z,5.10
2019-03-18T05:00:14.677Z,5.10
2019-03-18T05:02:43.946Z,5.10
2019-03-18T05:05:13.336Z,5.10
2019-03-18T05:07:42.767Z,5.00
2019-03-18T05:10:12.588Z,5.00
2019-03-18T05:12:42.199Z,5.00
2019-03-18T05:15:12.328Z,4.90
2019-03-18T05:17:41.583Z,5.00
2019-03-18T05:20:12.383Z,5.10
2019-03-18T05:22:41.649Z,5.10
2019-03-18T05:25:11.652Z,5.10
2019-03-18T05:27:40.914Z,5.10
2019-03-18T05:33:29.153Z,5.00
2019-03-18T05:35:58.730Z,5.00
2019-03-18T05:38:27.987Z,5.00
2019-03-18T05:40:57.252Z,4.90
2019-03-18T05:43:26.511Z,4.90
2019-03-18T05:45:55.774Z,4.90
2019-03-18T05:48:25.340Z,4.80
2019-03-18T05:50:54.608Z,4.80
2019-03-18T05:53:23.863Z,4.70
2019-03-18T05:55:53.441Z,4.70
2019-03-18T05:58:22.699Z,4.70
2019-03-18T06:00:51.960Z,4.90
2019-03-18T06:03:21.290Z,5.00
2019-03-18T06:05:50.556Z,5.00
2019-03-18T06:08:19.813Z,5.10
2019-03-18T06:10:49.077Z,5.20
2019-03-18T06:13:18.331Z,5.30
2019-03-18T06:15:47.594Z,5.30
2019-03-18T06:18:16.919Z,5.40
2019-03-18T06:20:46.178Z,5.30
2019-03-18T06:23:15.439Z,5.20
2019-03-18T06:25:44.778Z,5.30
2019-03-18T06:28:15.170Z,5.10
2019-03-18T06:30:44.431Z,5.20
2019-03-18T06:33:13.934Z,5.40
2019-03-18T06:35:43.200Z,5.40
2019-03-18T06:38:12.459Z,5.50
2019-03-18T06:40:41.727Z,5.50
2019-03-18T06:43:10.991Z,5.70
2019-03-18T06:45:40.261Z,5.60
2019-03-18T06:48:09.518Z,5.80
2019-03-18T06:50:38.794Z,5.90
2019-03-18T06:53:08.041Z,5.80
2019-03-18T06:55:37.308Z,5.80
2019-03-18T06:58:06.563Z,5.70
2019-03-18T07:00:35.829Z,5.90
2019-03-18T07:03:05.372Z,5.80
2019-03-18T07:05:34.642Z,6.00
2019-03-18T07:08:03.907Z,6.20
2019-03-18T07:10:33.180Z,6.30
2019-03-18T07:13:02.693Z,6.40
2019-03-18T07:15:32.285Z,6.50
2019-03-18T07:18:01.549Z,6.50
2019-03-18T07:20:31.093Z,6.60
2019-03-18T07:23:02.124Z,6.60
2019-03-18T07:25:31.383Z,6.60
2019-03-18T07:28:00.943Z,6.70
2019-03-18T07:30:30.196Z,6.70
2019-03-18T07:32:59.461Z,6.60
2019-03-18T07:35:28.720Z,6.60
2019-03-18T07:37:57.981Z,6.50
2019-03-18T07:40:27.244Z,6.60
2019-03-18T07:42:56.505Z,6.60
2019-03-18T07:45:25.768Z,6.80
2019-03-18T07:47:55.034Z,6.80
2019-03-18T07:50:24.297Z,6.90
2019-03-18T07:52:53.560Z,6.70
2019-03-18T07:55:23.141Z,6.80
2019-03-18T07:57:52.401Z,6.80
2019-03-18T08:00:21.944Z,7.00
2019-03-18T08:02:51.562Z,7.00
2019-03-18T08:05:21.159Z,6.90
2019-03-18T08:07:50.424Z,7.00
2019-03-18T08:10:19.688Z,6.90
2019-03-18T08:12:48.957Z,7.00
2019-03-18T08:15:18.211Z,6.90
2019-03-18T08:17:47.772Z,6.80
2019-03-18T08:20:17.100Z,6.60
2019-03-18T08:22:46.365Z,6.30
2019-03-18T08:25:15.632Z,6.40
2019-03-18T08:27:44.900Z,6.50
2019-03-18T08:30:18.105Z,6.40
2019-03-18T08:32:47.381Z,6.50
2019-03-18T08:35:16.638Z,6.70
2019-03-18T08:37:45.901Z,6.60
2019-03-18T08:40:15.160Z,6.70
2019-03-18T08:42:44.434Z,6.70
2019-03-18T08:45:16.657Z,6.70
2019-03-18T08:47:45.921Z,6.90
2019-03-18T08:50:15.257Z,7.20
2019-03-18T08:52:44.524Z,7.60
2019-03-18T08:55:13.857Z,7.90
2019-03-18T08:57:43.126Z,8.30
2019-03-18T09:00:17.141Z,8.50
2019-03-18T09:02:46.478Z,8.50
2019-03-18T09:05:15.748Z,8.70
2019-03-18T09:07:45.021Z,8.60
2019-03-18T09:10:18.230Z,8.80
2019-03-18T09:12:47.492Z,8.80
2019-03-18T09:15:16.752Z,8.60
2019-03-18T09:17:46.022Z,8.60
2019-03-18T09:20:17.210Z,8.90
2019-03-18T09:22:46.460Z,8.80
2019-03-18T09:25:15.783Z,9.00
2019-03-18T09:27:45.299Z,9.20
2019-03-18T09:30:17.846Z,9.10
2019-03-18T09:32:47.107Z,8.50
2019-03-18T09:35:16.437Z,8.20
2019-03-18T09:37:45.719Z,8.20
2019-03-18T09:40:16.533Z,8.70
2019-03-18T09:42:45.782Z,9.20
2019-03-18T09:45:19.183Z,9.20
2019-03-18T09:47:48.451Z,8.90
2019-03-18T09:50:17.775Z,9.20
2019-03-18T09:52:47.035Z,9.40
2019-03-18T09:55:16.597Z,8.90
2019-03-18T09:57:45.871Z,8.70
2019-03-18T10:00:19.829Z,8.70
2019-03-18T10:02:49.414Z,8.50
2019-03-18T10:05:19.021Z,8.40
2019-03-18T10:07:48.305Z,8.60
2019-03-18T10:10:17.565Z,8.80
2019-03-18T10:12:46.839Z,8.80
2019-03-18T10:15:19.384Z,8.80
2019-03-18T10:17:48.653Z,9.00
2019-03-18T10:20:17.971Z,9.00
2019-03-18T10:22:47.186Z,8.80
2019-03-18T10:25:16.458Z,8.90
2019-03-18T10:27:45.999Z,9.40
2019-03-18T10:30:18.150Z,9.40
2019-03-18T10:32:47.424Z,9.20
2019-03-18T10:35:16.680Z,8.90
2019-03-18T10:37:46.285Z,9.30
2019-03-18T10:40:16.089Z,9.30
2019-03-18T10:42:45.363Z,9.10
2019-03-18T10:45:15.365Z,9.80
2019-03-18T10:47:44.638Z,9.90
2019-03-18T10:50:15.612Z,9.80
2019-03-18T10:52:44.922Z,9.80
2019-03-18T10:55:14.576Z,9.60
2019-03-18T10:57:44.163Z,9.30
2019-03-18T11:00:15.920Z,9.40
2019-03-18T11:02:45.656Z,9.50
2019-03-18T11:05:15.407Z,9.40
2019-03-18T11:07:44.657Z,9.50
2019-03-18T11:10:17.699Z,9.40
2019-03-18T11:12:46.962Z,9.20
2019-03-18T11:15:21.085Z,9.20
2019-03-18T11:17:50.332Z,9.30
2019-03-18T11:20:19.596Z,9.50
2019-03-18T11:22:48.857Z,9.70
2019-03-18T11:25:18.387Z,9.70
2019-03-18T11:27:47.655Z,9.90
2019-03-18T11:30:18.231Z,9.90
2019-03-18T11:32:47.491Z,10.20
2019-03-18T11:35:16.764Z,10.20
2019-03-18T11:37:46.107Z,10.00
2019-03-18T11:40:18.084Z,10.10
2019-03-18T11:42:47.422Z,10.20
2019-03-18T11:45:17.595Z,10.20
2019-03-18T11:47:47.376Z,10.60
2019-03-18T11:50:20.438Z,10.50
2019-03-18T11:52:49.711Z,10.10
2019-03-18T11:55:24.963Z,9.80
2019-03-18T11:57:54.224Z,9.70
2019-03-18T12:00:25.451Z,10.10
2019-03-18T12:02:54.727Z,10.60
2019-03-18T12:05:27.806Z,11.20
2019-03-18T12:07:57.343Z,11.80
2019-03-18T12:10:26.705Z,11.80
2019-03-18T12:12:55.965Z,11.40
2019-03-18T12:15:28.459Z,11.70
2019-03-18T12:17:57.734Z,11.30
2019-03-18T12:20:27.333Z,11.30
2019-03-18T12:22:56.955Z,10.90
2019-03-18T12:25:26.209Z,10.90
2019-03-18T12:27:55.479Z,10.90
2019-03-18T12:30:27.433Z,11.20
2019-03-18T12:32:57.018Z,11.60
2019-03-18T12:35:26.285Z,11.40
2019-03-18T12:37:55.634Z,11.50
2019-03-18T12:40:24.969Z,11.40
2019-03-18T12:42:54.320Z,11.20
2019-03-18T12:45:24.119Z,11.30
2019-03-18T12:47:53.390Z,11.30
2019-03-18T12:50:43.007Z,10.90
2019-03-18T12:52:55.282Z,10.90
2019-03-18T12:55:24.555Z,10.80
2019-03-18T12:57:54.108Z,10.90
2019-03-18T13:00:34.150Z,10.70
2019-03-18T13:03:03.567Z,10.90
2019-03-18T13:05:32.835Z,11.10
2019-03-18T13:08:02.107Z,11.10
2019-03-18T13:10:31.385Z,11.00
2019-03-18T13:13:00.727Z,10.80
2019-03-18T13:15:29.995Z,10.90
2019-03-18T13:17:59.268Z,11.10
2019-03-18T13:20:28.557Z,11.30
2019-03-18T13:22:57.826Z,11.10
2019-03-18T13:25:27.102Z,10.70
2019-03-18T13:27:56.370Z,10.60
2019-03-18T13:30:26.277Z,11.20
2019-03-18T13:32:55.544Z,11.90
2019-03-18T13:35:24.823Z,12.20
2019-03-18T13:37:54.178Z,11.90
2019-03-18T13:40:23.463Z,12.10
2019-03-18T13:42:52.982Z,11.90
2019-03-18T13:45:23.575Z,11.90
2019-03-18T13:47:52.845Z,11.70
2019-03-18T13:50:22.856Z,11.70
2019-03-18T13:52:52.462Z,11.20
2019-03-18T13:55:21.730Z,10.90
2019-03-18T13:57:51.001Z,11.10
2019-03-18T14:00:21.781Z,10.70
2019-03-18T14:02:51.271Z,10.40
2019-03-18T14:05:20.606Z,10.10
2019-03-18T14:07:59.509Z,10.10
2019-03-18T14:10:25.272Z,10.10
2019-03-18T14:12:54.530Z,9.90
2019-03-18T14:15:24.801Z,9.80
2019-03-18T14:17:54.069Z,9.60
2019-03-18T14:20:28.249Z,9.50
2019-03-18T14:22:57.518Z,8.80
2019-03-18T14:25:26.794Z,8.40
2019-03-18T14:27:56.365Z,7.90
2019-03-18T14:30:25.625Z,7.40
2019-03-18T14:32:54.909Z,7.00
2019-03-18T14:35:24.173Z,6.90
2019-03-18T14:37:53.439Z,6.80
2019-03-18T14:40:26.368Z,6.80
2019-03-18T14:42:55.876Z,6.90
2019-03-18T14:45:25.687Z,7.10
2019-03-18T14:47:54.941Z,7.50
2019-03-18T14:50:24.343Z,7.80
2019-03-18T14:52:53.786Z,8.10
2019-03-18T14:55:23.381Z,8.30
2019-03-18T14:57:52.648Z,8.10
2019-03-18T15:00:29.707Z,8.20
2019-03-18T15:02:58.984Z,8.20
2019-03-18T15:05:28.274Z,8.50
2019-03-18T15:07:57.730Z,9.00
2019-03-18T15:10:29.838Z,9.30
2019-03-18T15:12:59.153Z,9.50
2019-03-18T15:15:28.438Z,9.50
2019-03-18T15:17:57.719Z,9.50
2019-03-18T15:20:28.808Z,9.80
2019-03-18T15:22:58.148Z,10.20
2019-03-18T15:25:35.559Z,10.50
2019-03-18T15:28:04.982Z,10.70
2019-03-18T15:30:34.243Z,10.90
2019-03-18T15:33:03.538Z,11.10
2019-03-18T15:35:32.792Z,11.40
2019-03-18T15:38:02.077Z,11.30
2019-03-18T15:40:31.432Z,11.40
2019-03-18T15:43:00.721Z,11.20
2019-03-18T15:45:29.981Z,11.20
2019-03-18T15:47:59.732Z,11.20
2019-03-18T15:50:29.014Z,11.10
2019-03-18T15:52:58.299Z,10.70
2019-03-18T15:55:27.578Z,10.40
2019-03-18T15:57:56.909Z,10.40
2019-03-18T16:00:31.358Z,10.90
2019-03-18T16:03:01.273Z,11.30
2019-03-18T16:05:30.544Z,11.50
2019-03-18T16:07:59.815Z,11.50
2019-03-18T16:10:29.099Z,11.70
2019-03-18T16:12:58.386Z,11.60
2019-03-18T16:15:27.655Z,11.50
2019-03-18T16:17:56.933Z,11.40
2019-03-18T16:20:29.006Z,11.30
2019-03-18T16:22:58.295Z,11.40
2019-03-18T16:25:27.572Z,11.10
2019-03-18T16:27:56.861Z,11.10
2019-03-18T16:30:26.201Z,11.10
2019-03-18T16:32:55.476Z,11.00
2019-03-18T16:35:24.751Z,10.80
2019-03-18T16:37:54.047Z,10.90
2019-03-18T16:40:24.431Z,10.80
2019-03-18T16:42:53.715Z,11.10
2019-03-18T16:45:22.983Z,11.00
2019-03-18T16:47:52.254Z,10.70
2019-03-18T16:50:28.019Z,10.60
2019-03-18T16:52:57.310Z,10.30
2019-03-18T16:55:26.597Z,10.20
2019-03-18T16:57:55.882Z,10.00
2019-03-18T17:00:26.868Z,9.80
2019-03-18T17:02:56.139Z,9.60
2019-03-18T17:05:25.408Z,9.10
2019-03-18T17:07:55.013Z,8.80
2019-03-18T17:10:24.273Z,8.20
2019-03-18T17:12:53.541Z,7.90
2019-03-18T17:15:23.595Z,7.70
2019-03-18T17:17:52.851Z,7.50
2019-03-18T17:20:22.432Z,7.30
2019-03-18T17:22:51.691Z,7.00
2019-03-18T17:25:26.827Z,7.00
2019-03-18T17:27:56.478Z,6.80
2019-03-18T17:30:26.851Z,6.80
2019-03-18T17:32:56.387Z,6.80
2019-03-18T17:35:25.972Z,6.70
2019-03-18T17:37:55.228Z,6.80
2019-03-18T17:40:24.822Z,6.70
2019-03-18T17:42:54.083Z,6.60
2019-03-18T17:45:23.632Z,6.60
2019-03-18T17:47:53.247Z,6.60
2019-03-18T17:50:31.001Z,6.70
2019-03-18T17:53:03.789Z,6.70
2019-03-18T17:55:31.531Z,6.70
2019-03-18T17:58:01.088Z,6.70
2019-03-18T18:00:35.201Z,6.60
2019-03-18T18:03:04.529Z,6.50
2019-03-18T18:05:33.794Z,6.50
2019-03-18T18:08:03.203Z,6.40
2019-03-18T18:10:32.816Z,6.40
2019-03-18T18:13:02.312Z,6.40
2019-03-18T18:15:31.949Z,6.30
2019-03-18T18:18:01.534Z,6.20
2019-03-18T18:20:31.042Z,6.20
2019-03-18T18:23:00.323Z,6.10
2019-03-18T18:25:29.570Z,6.10
2019-03-18T18:27:58.830Z,6.00
2019-03-18T18:30:28.333Z,6.00
2019-03-18T18:32:57.671Z,5.90
2019-03-18T18:35:27.251Z,5.90
2019-03-18T18:37:56.515Z,5.90
2019-03-18T18:40:27.994Z,5.80
2019-03-18T18:42:57.244Z,5.70
2019-03-18T18:45:26.810Z,5.70
2019-03-18T18:47:56.418Z,5.60
2019-03-18T18:50:26.028Z,5.60
2019-03-18T18:52:55.636Z,5.60
2019-03-18T18:55:25.138Z,5.50
2019-03-18T18:57:54.401Z,5.60
2019-03-18T19:00:24.249Z,5.60
2019-03-18T19:02:53.858Z,5.60
2019-03-18T19:05:23.112Z,5.70
2019-03-18T19:07:52.369Z,5.70
2019-03-18T19:10:24.641Z,5.80
2019-03-18T19:12:54.139Z,5.80
2019-03-18T19:15:32.381Z,5.90
2019-03-18T19:18:01.635Z,5.90
2019-03-18T19:20:31.254Z,5.90
2019-03-18T19:23:00.865Z,5.70
2019-03-18T19:25:30.120Z,5.70
2019-03-18T19:27:59.379Z,5.60
2019-03-18T19:30:28.635Z,5.50
2019-03-18T19:32:58.163Z,5.40
2019-03-18T19:35:28.811Z,5.40
2019-03-18T19:37:58.160Z,5.50
2019-03-18T19:40:27.491Z,5.40
2019-03-18T19:42:57.883Z,5.30
2019-03-18T19:45:27.638Z,5.30
2019-03-18T19:47:58.377Z,5.30
2019-03-18T19:50:32.910Z,5.30
2019-03-18T19:53:02.701Z,5.40
2019-03-18T19:55:32.537Z,5.50
2019-03-18T19:58:02.053Z,5.50
2019-03-18T20:00:31.776Z,5.60
2019-03-18T20:03:01.242Z,5.50
2019-03-18T20:05:30.951Z,5.50
2019-03-18T20:08:01.276Z,5.50
2019-03-18T20:10:31.394Z,5.50
2019-03-18T20:13:00.886Z,5.50
2019-03-18T20:15:30.711Z,5.50
2019-03-18T20:18:00.605Z,5.40
2019-03-18T20:20:30.343Z,5.30
2019-03-18T20:23:00.083Z,5.30
2019-03-18T20:25:29.631Z,5.30
2019-03-18T20:27:59.841Z,5.30
2019-03-18T20:30:29.103Z,5.20
2019-03-18T20:32:58.997Z,5.20
2019-03-18T20:35:28.706Z,5.20
2019-03-18T20:37:58.254Z,5.10
2019-03-18T20:40:29.263Z,5.10
2019-03-18T20:42:59.131Z,5.00
2019-03-18T20:45:29.795Z,5.00
2019-03-18T20:47:59.055Z,4.90
2019-03-18T20:50:29.722Z,4.90
2019-03-18T20:52:59.852Z,4.80
2019-03-18T20:55:29.968Z,4.80
2019-03-18T20:57:59.681Z,4.80
2019-03-18T21:00:29.178Z,4.70
2019-03-18T21:02:58.576Z,4.80
2019-03-18T21:05:28.788Z,4.70
2019-03-18T21:07:58.513Z,4.80
2019-03-18T21:10:28.127Z,4.80
2019-03-18T21:12:59.302Z,4.70
2019-03-18T21:15:28.974Z,4.80
2019-03-18T21:17:58.889Z,4.70
2019-03-18T21:20:30.753Z,4.70
2019-03-18T21:23:00.019Z,4.70
2019-03-18T21:25:29.550Z,4.60
2019-03-18T21:27:59.061Z,4.60
2019-03-18T21:30:28.325Z,4.60
2019-03-18T21:32:57.658Z,4.50
2019-03-18T21:35:26.918Z,4.50
2019-03-18T21:37:56.459Z,4.50
2019-03-18T21:40:25.965Z,4.50
2019-03-18T21:42:55.571Z,4.40
2019-03-18T21:45:25.726Z,4.30
2019-03-18T21:47:54.981Z,4.30
2019-03-18T21:50:24.310Z,4.30
2019-03-18T21:52:53.570Z,4.30
2019-03-18T21:55:22.829Z,4.30
2019-03-18T21:57:52.499Z,4.30
2019-03-18T22:00:23.069Z,4.30
2019-03-18T22:02:52.639Z,4.30
2019-03-18T22:05:21.908Z,4.30
2019-03-18T22:07:51.156Z,4.30
2019-03-18T22:10:21.256Z,4.20
2019-03-18T22:12:50.584Z,4.20
2019-03-18T22:15:20.168Z,4.20
2019-03-18T22:17:49.777Z,4.20
2019-03-18T22:20:20.303Z,4.20
2019-03-18T22:22:49.570Z,4.30
2019-03-18T22:25:19.107Z,4.30
2019-03-18T22:27:48.369Z,4.30
2019-03-18T22:30:21.051Z,4.30
2019-03-18T22:32:50.313Z,4.30
2019-03-18T22:35:19.816Z,4.20
2019-03-18T22:37:49.077Z,4.20
2019-03-18T22:40:19.025Z,4.20
2019-03-18T22:42:48.280Z,4.20
2019-03-18T22:45:18.533Z,4.20
2019-03-18T22:47:47.793Z,4.30
2019-03-18T22:50:21.637Z,4.30
2019-03-18T22:52:51.254Z,4.30
2019-03-18T22:55:20.513Z,4.40
2019-03-18T22:57:49.776Z,4.40
2019-03-18T23:00:22.688Z,4.50
2019-03-18T23:02:52.334Z,4.50
2019-03-18T23:05:21.592Z,4.50
2019-03-18T23:07:50.852Z,4.50
2019-03-18T23:10:20.180Z,4.60
2019-03-18T23:12:49.745Z,4.60
2019-03-18T23:15:19.002Z,4.60
2019-03-18T23:17:48.262Z,4.60
2019-03-18T23:20:17.769Z,4.50
2019-03-18T23:22:47.360Z,4.50
2019-03-18T23:25:16.619Z,4.50
2019-03-18T23:27:45.871Z,4.40
2019-03-18T23:30:15.985Z,4.30
2019-03-18T23:32:45.310Z,4.30
2019-03-18T23:35:14.574Z,4.20
2019-03-18T23:37:43.833Z,4.20
2019-03-18T23:40:14.821Z,4.10
2019-03-18T23:42:44.149Z,4.10
2019-03-18T23:45:14.361Z,4.10
2019-03-18T23:47:43.634Z,4.00
2019-03-18T23:50:15.673Z,4.00
2019-03-18T23:52:44.938Z,4.00
2019-03-18T23:55:19.528Z,3.90
2019-03-18T23:57:45.200Z,3.90
